»·PEaware :: N573BZ KSBA-KBUR

N573BZ :: KSBA-KBUR

FLIGHT INFORMATION

Flight Status: Arrived
Operator: Privately registered:
United States
More flights under this callsign
Pilot: Ed S. (33230)
Aircraft: Unknown
(P28S)
More flights by this aircraft type
Origin: KSBA Santa Barbara Mun
United States
Destination: KBUR Bob Hope-Burbank
United States
More flights between these airports :: More routes between these airports
Route:
File this flight plan on PilotEdge
Remarks:
Altitude:
(Current/Filed)
7,500ft
Speed:
(Current/Filed)
130kts
Departed: 19-Jan-21 08:37 AM
Arrived: 19-Jan-21 09:15 AM
Distance/Time
Traveled:
75nm/0:38
Distance/Time
To Go:
Arrived

Flight Plot

Page will automatically refresh every two minutes.


Map Options




Map Legend


Flown Route
Filed Route
Departure Airport
Arrival Airport
Navaid (VOR, NDB)
Fix

Horizontal Profiles

Position Reports

Time Latitude Longitude Heading Altitude Ground
Speed
19-Jan-21 08:20 34.432568 -119.835090 71 13ft 0kts
19-Jan-21 08:21 34.432568 -119.835090 71 13ft 0kts
19-Jan-21 08:22 34.432568 -119.835090 71 13ft 0kts
19-Jan-21 08:23 34.432568 -119.835090 71 13ft 0kts
19-Jan-21 08:24 34.432568 -119.835090 71 13ft 0kts
19-Jan-21 08:25 34.432568 -119.835090 71 13ft 0kts
19-Jan-21 08:26 34.432568 -119.835090 71 13ft 0kts
19-Jan-21 08:27 34.432568 -119.835090 71 13ft 0kts
19-Jan-21 08:28 34.432568 -119.835090 71 13ft 0kts
19-Jan-21 08:29 34.432572 -119.835069 80 13ft 0kts
19-Jan-21 08:30 34.432085 -119.835128 236 13ft 3kts
19-Jan-21 08:31 34.430529 -119.835320 179 11ft 13kts
19-Jan-21 08:32 34.428779 -119.835289 182 10ft 0kts
19-Jan-21 08:33 34.428721 -119.835292 182 10ft 0kts
19-Jan-21 08:34 34.428721 -119.835292 182 10ft 0kts
19-Jan-21 08:35 34.427878 -119.835774 266 10ft 17kts
19-Jan-21 08:36 34.425844 -119.862817 264 513ft 108kts
19-Jan-21 08:37 34.421373 -119.900227 233 1114ft 115kts
19-Jan-21 08:38 34.398969 -119.894009 103 2093ft 98kts
19-Jan-21 08:39 34.394051 -119.862459 99 3091ft 95kts
19-Jan-21 08:40 34.390392 -119.830812 91 4091ft 96kts
19-Jan-21 08:41 34.389373 -119.797811 91 5040ft 102kts
19-Jan-21 08:42 34.388350 -119.763150 91 5926ft 105kts
19-Jan-21 08:43 34.387321 -119.726427 91 6732ft 111kts
19-Jan-21 08:44 34.386320 -119.688558 91 7479ft 118kts
19-Jan-21 08:45 34.385184 -119.643382 91 7500ft 141kts
19-Jan-21 08:46 34.384063 -119.595514 91 7499ft 141kts
19-Jan-21 08:47 34.381010 -119.548973 95 7499ft 138kts
19-Jan-21 08:48 34.376104 -119.502808 99 7499ft 137kts
19-Jan-21 08:49 34.369261 -119.457241 99 7500ft 137kts
19-Jan-21 08:50 34.362468 -119.411531 99 7500ft 137kts
19-Jan-21 08:51 34.355750 -119.365831 99 7500ft 137kts
19-Jan-21 08:52 34.349094 -119.320032 100 7500ft 137kts
19-Jan-21 08:53 34.342535 -119.274400 99 7500ft 137kts
19-Jan-21 08:54 34.336035 -119.228649 99 7500ft 137kts
19-Jan-21 08:55 34.329624 -119.183016 99 7500ft 137kts
19-Jan-21 08:56 34.323219 -119.136908 99 7500ft 139kts
19-Jan-21 08:57 34.316047 -119.090650 101 7500ft 139kts
19-Jan-21 08:58 34.308388 -119.044411 101 7500ft 140kts
19-Jan-21 08:59 34.300833 -118.998341 101 7500ft 140kts
19-Jan-21 09:00 34.293340 -118.952186 100 7500ft 140kts
19-Jan-21 09:01 34.285922 -118.906032 100 7500ft 140kts
19-Jan-21 09:02 34.278577 -118.859860 100 7500ft 140kts
19-Jan-21 09:03 34.271282 -118.813526 100 7500ft 140kts
19-Jan-21 09:04 34.263994 -118.766765 100 7309ft 147kts
19-Jan-21 09:05 34.256299 -118.716871 100 6621ft 152kts
19-Jan-21 09:06 34.248658 -118.666755 100 5920ft 151kts
19-Jan-21 09:07 34.241147 -118.616971 100 5220ft 150kts
19-Jan-21 09:08 34.234869 -118.567979 97 4707ft 146kts
19-Jan-21 09:09 34.230172 -118.519041 95 4206ft 146kts
19-Jan-21 09:10 34.225926 -118.470216 95 3706ft 146kts
19-Jan-21 09:11 34.223168 -118.420962 91 2876ft 143kts
19-Jan-21 09:12 34.223487 -118.376867 86 1866ft 102kts
19-Jan-21 09:13 34.210370 -118.359943 166 794ft 96kts
19-Jan-21 09:14 34.202782 -118.358901 257 730ft 0kts
19-Jan-21 09:15 34.202322 -118.358840 158 729ft 0kts
19-Jan-21 09:16 34.200721 -118.359586 193 724ft 9kts
19-Jan-21 09:17 34.200567 -118.359574 162 723ft 0kts
19-Jan-21 09:18 34.200567 -118.359574 163 723ft 0kts
19-Jan-21 09:19 34.200567 -118.359574 163 723ft 0kts
19-Jan-21 09:20 34.200567 -118.359574 163 723ft 0kts
19-Jan-21 09:21 34.200567 -118.359574 163 723ft 0kts
19-Jan-21 09:23 34.200567 -118.359574 163 723ft 0kts
19-Jan-21 09:24 34.200567 -118.359574 163 723ft 0kts
19-Jan-21 09:25 34.200567 -118.359574 163 723ft 0kts
19-Jan-21 09:26 34.200567 -118.359574 163 723ft 0kts
19-Jan-21 09:27 34.200567 -118.359574 163 723ft 0kts
19-Jan-21 09:28 34.200567 -118.359574 163 723ft 0kts
19-Jan-21 09:29 34.200567 -118.359574 163 723ft 0kts

Navigation Log

Ident Type
Flight plan parsing failed, navigation log unavailable